createdAt,value
2023-05-06T00:04:32.567Z,58.98
2023-05-06T00:09:34.780Z,59.38
2023-05-06T00:14:36.818Z,59.96
2023-05-06T00:19:38.793Z,60.20
2023-05-06T00:24:40.756Z,60.24
2023-05-06T00:29:42.427Z,60.49
2023-05-06T00:34:44.246Z,60.78
2023-05-06T00:39:45.858Z,60.84
2023-05-06T00:44:47.832Z,61.24
2023-05-06T00:49:51.395Z,61.94
2023-05-06T00:54:54.092Z,62.18
2023-05-06T00:59:55.739Z,62.24
2023-05-06T01:04:58.668Z,62.58
2023-05-06T01:10:24.447Z,62.73
2023-05-06T01:15:33.353Z,62.89
2023-05-06T01:20:38.337Z,63.26
2023-05-06T01:25:41.034Z,63.52
2023-05-06T01:30:59.606Z,63.61
2023-05-06T01:36:15.900Z,63.64
2023-05-06T01:41:19.468Z,63.59
2023-05-06T01:46:24.291Z,63.74
2023-05-06T01:51:26.062Z,63.90
2023-05-06T01:56:30.311Z,64.51
2023-05-06T02:01:32.147Z,64.92
2023-05-06T02:06:34.746Z,65.08
2023-05-06T02:11:36.817Z,65.15
2023-05-06T02:16:41.382Z,65.18
2023-05-06T02:21:43.087Z,65.41
2023-05-06T02:26:44.886Z,65.57
2023-05-06T02:31:46.609Z,65.74
2023-05-06T02:36:50.371Z,65.79
2023-05-06T02:41:51.996Z,65.88
2023-05-06T02:46:53.892Z,66.29
2023-05-06T02:51:55.800Z,65.86
2023-05-06T02:56:57.487Z,66.36
2023-05-06T03:01:59.156Z,66.64
2023-05-06T03:07:00.845Z,67.00
2023-05-06T03:12:02.900Z,66.96
2023-05-06T03:17:04.869Z,66.92
2023-05-06T03:22:07.714Z,67.14
2023-05-06T03:27:10.476Z,66.81
2023-05-06T03:32:12.849Z,66.99
2023-05-06T03:37:17.210Z,66.65
2023-05-06T03:42:23.085Z,66.80
2023-05-06T03:47:25.623Z,67.07
2023-05-06T03:52:27.872Z,67.12
2023-05-06T03:57:30.019Z,67.51
2023-05-06T04:02:35.182Z,67.22
2023-05-06T04:07:37.799Z,66.91
2023-05-06T04:12:39.722Z,66.61
2023-05-06T04:17:42.122Z,66.43
2023-05-06T04:22:44.359Z,66.01
2023-05-06T04:27:46.938Z,66.03
2023-05-06T04:32:48.885Z,65.61
2023-05-06T04:37:51.300Z,65.16
2023-05-06T04:42:58.580Z,64.55
2023-05-06T04:48:01.394Z,64.39
2023-05-06T04:53:03.864Z,63.53
2023-05-06T04:58:05.627Z,62.99
2023-05-06T05:03:07.633Z,62.68
2023-05-06T05:08:10.076Z,62.21
2023-05-06T05:13:13.898Z,61.93
2023-05-06T05:18:15.925Z,61.08
2023-05-06T05:23:18.577Z,60.25
2023-05-06T05:28:20.535Z,60.20
2023-05-06T05:33:22.542Z,59.77
2023-05-06T05:38:25.258Z,59.44
2023-05-06T05:43:27.622Z,59.86
2023-05-06T05:48:31.021Z,58.92
2023-05-06T05:53:32.881Z,58.53
2023-05-06T05:58:35.079Z,58.21
2023-05-06T06:03:38.288Z,57.27
2023-05-06T06:08:40.836Z,56.60
2023-05-06T06:13:43.313Z,56.70
2023-05-06T06:18:45.366Z,56.15
2023-05-06T06:23:47.196Z,56.07
2023-05-06T06:28:49.353Z,55.62
2023-05-06T06:33:51.361Z,55.36
2023-05-06T06:38:53.108Z,55.63
2023-05-06T06:43:54.788Z,54.08
2023-05-06T06:49:03.547Z,53.70
2023-05-06T06:54:05.275Z,53.41
2023-05-06T06:59:07.699Z,53.51
2023-05-06T07:04:09.812Z,53.01
2023-05-06T07:09:12.050Z,52.28
2023-05-06T07:14:13.871Z,51.92
2023-05-06T07:19:15.593Z,51.90
2023-05-06T07:24:17.364Z,51.91
2023-05-06T07:29:19.068Z,52.52
2023-05-06T07:34:20.788Z,52.79
2023-05-06T07:39:22.628Z,52.76
2023-05-06T07:44:24.294Z,53.11
2023-05-06T07:49:28.737Z,53.82
2023-05-06T07:54:31.795Z,53.87
2023-05-06T07:59:33.708Z,53.97
2023-05-06T08:04:36.141Z,54.47
2023-05-06T08:09:38.007Z,54.47
2023-05-06T08:14:39.657Z,54.94
2023-05-06T08:19:41.259Z,54.68
2023-05-06T08:24:43.211Z,55.04
2023-05-06T08:29:44.876Z,54.43
2023-05-06T08:34:46.785Z,54.21
2023-05-06T08:39:48.488Z,54.10
2023-05-06T08:44:52.293Z,54.59
2023-05-06T08:49:53.979Z,55.41
2023-05-06T08:55:01.358Z,56.26
2023-05-06T09:00:04.930Z,58.36
2023-05-06T09:05:08.203Z,59.95
2023-05-06T09:10:14.389Z,61.70
2023-05-06T09:15:16.494Z,63.67
2023-05-06T09:20:18.159Z,66.25
2023-05-06T09:25:20.462Z,66.48
2023-05-06T09:30:22.153Z,69.41
2023-05-06T09:35:28.999Z,71.30
2023-05-06T09:40:31.711Z,72.92
2023-05-06T09:45:33.577Z,73.66
2023-05-06T09:50:36.583Z,73.89
2023-05-06T09:55:39.735Z,74.02
2023-05-06T10:00:42.304Z,74.44
2023-05-06T10:05:46.145Z,74.82
2023-05-06T10:10:49.899Z,75.54
2023-05-06T10:15:52.643Z,76.35
2023-05-06T10:20:55.516Z,76.91
2023-05-06T10:26:01.200Z,77.55
2023-05-06T10:31:05.169Z,78.65
2023-05-06T10:36:22.576Z,78.98
2023-05-06T10:41:27.815Z,79.53
2023-05-06T10:46:30.097Z,79.82
2023-05-06T10:51:31.725Z,79.83
2023-05-06T10:56:35.860Z,80.10
2023-05-06T11:01:40.069Z,79.92
2023-05-06T11:06:47.738Z,80.40
2023-05-06T11:12:03.918Z,80.22
2023-05-06T11:17:28.486Z,80.65
2023-05-06T11:22:40.912Z,81.09
2023-05-06T11:27:42.734Z,81.73
2023-05-06T11:32:46.851Z,82.03
2023-05-06T11:37:48.645Z,81.83
2023-05-06T11:42:50.407Z,82.08
2023-05-06T11:47:54.605Z,82.08
2023-05-06T11:52:56.355Z,82.49
2023-05-06T11:57:58.229Z,81.92
2023-05-06T12:02:59.918Z,81.86
2023-05-06T12:08:01.839Z,82.57
2023-05-06T12:13:05.816Z,82.10
2023-05-06T12:18:07.728Z,82.09
2023-05-06T12:23:14.716Z,81.92
2023-05-06T12:28:22.767Z,81.96
2023-05-06T12:33:24.400Z,82.30
2023-05-06T12:38:26.057Z,81.93
2023-05-06T12:43:32.849Z,81.91
2023-05-06T12:48:34.849Z,81.76
2023-05-06T12:53:36.600Z,81.52
2023-05-06T12:58:39.813Z,81.51
2023-05-06T13:03:41.692Z,81.87
2023-05-06T13:08:43.877Z,81.94
2023-05-06T13:13:45.550Z,82.00
2023-05-06T13:18:47.222Z,80.87
2023-05-06T13:23:49.425Z,80.21
2023-05-06T13:28:51.624Z,79.06
2023-05-06T13:33:53.262Z,79.27
2023-05-06T13:38:55.135Z,78.35
2023-05-06T13:43:56.870Z,77.37
2023-05-06T13:48:58.637Z,75.89
2023-05-06T13:54:01.256Z,75.81
2023-05-06T13:59:02.903Z,74.73
2023-05-06T14:04:04.777Z,73.22
2023-05-06T14:09:06.776Z,73.06
2023-05-06T14:14:08.440Z,72.45
2023-05-06T14:19:10.272Z,71.60
2023-05-06T14:24:12.579Z,71.58
2023-05-06T14:29:14.273Z,68.72
2023-05-06T14:34:15.959Z,67.61
2023-05-06T14:39:17.668Z,67.51
2023-05-06T14:44:19.316Z,66.67
2023-05-06T14:49:21.305Z,66.54
2023-05-06T14:54:23.067Z,66.05
2023-05-06T14:59:24.687Z,65.81
2023-05-06T15:04:27.424Z,63.79
2023-05-06T15:09:29.197Z,63.86
2023-05-06T15:14:30.986Z,64.66
2023-05-06T15:19:33.480Z,64.28
2023-05-06T15:24:35.984Z,64.78
2023-05-06T15:29:39.301Z,64.90
2023-05-06T15:34:40.962Z,65.53
2023-05-06T15:39:42.849Z,65.86
2023-05-06T15:44:46.722Z,65.45
2023-05-06T15:49:54.795Z,66.26
2023-05-06T15:55:13.511Z,65.69
2023-05-06T16:00:16.558Z,65.14
2023-05-06T16:05:18.243Z,65.14
2023-05-06T16:10:20.062Z,63.76
2023-05-06T16:15:21.771Z,63.40
2023-05-06T16:20:23.467Z,64.39
2023-05-06T16:25:29.178Z,64.68
2023-05-06T16:30:30.914Z,65.14
2023-05-06T16:35:32.966Z,65.59
2023-05-06T16:40:41.548Z,65.11
2023-05-06T16:45:45.270Z,67.10
2023-05-06T16:50:47.087Z,68.11
2023-05-06T16:55:49.575Z,68.89
2023-05-06T17:00:54.047Z,69.27
2023-05-06T17:05:55.717Z,68.86
2023-05-06T17:10:57.490Z,68.15
2023-05-06T17:15:59.305Z,67.55
2023-05-06T17:21:02.115Z,68.12
2023-05-06T17:26:09.657Z,68.49
2023-05-06T17:31:12.213Z,68.19
2023-05-06T17:36:16.716Z,68.44
2023-05-06T17:41:18.389Z,68.60
2023-05-06T17:46:20.316Z,69.11
2023-05-06T17:51:22.271Z,69.89
2023-05-06T17:56:23.901Z,70.80
2023-05-06T18:01:25.545Z,71.97
2023-05-06T18:06:27.881Z,72.99
2023-05-06T18:11:29.647Z,73.42
2023-05-06T18:16:31.689Z,74.36
2023-05-06T18:21:35.012Z,74.92
2023-05-06T18:26:44.862Z,75.13
2023-05-06T18:31:47.816Z,75.39
2023-05-06T18:36:49.934Z,75.53
2023-05-06T18:41:52.782Z,75.60
2023-05-06T18:46:54.483Z,75.82
2023-05-06T18:51:56.169Z,75.94
2023-05-06T18:56:58.656Z,76.04
2023-05-06T19:02:01.919Z,76.10
2023-05-06T19:07:04.369Z,76.75
2023-05-06T19:12:06.152Z,77.03
2023-05-06T19:17:07.885Z,77.29
2023-05-06T19:22:09.521Z,77.41
2023-05-06T19:27:11.206Z,77.34
2023-05-06T19:32:13.070Z,77.13
2023-05-06T19:37:14.845Z,77.32
2023-05-06T19:42:16.567Z,77.64
2023-05-06T19:47:19.436Z,77.45
2023-05-06T19:52:21.240Z,77.41
2023-05-06T19:57:23.364Z,77.34
2023-05-06T20:02:25.388Z,77.08
2023-05-06T20:07:27.217Z,77.21
2023-05-06T20:12:30.155Z,76.96
2023-05-06T20:17:31.922Z,76.94
2023-05-06T20:22:33.580Z,76.96
2023-05-06T20:27:35.279Z,77.03
2023-05-06T20:32:40.394Z,77.07
2023-05-06T20:37:42.530Z,76.82
2023-05-06T20:42:44.169Z,76.81
2023-05-06T20:47:45.935Z,77.03
2023-05-06T20:52:47.754Z,77.49
2023-05-06T20:57:49.953Z,77.57
2023-05-06T21:02:51.895Z,78.03
2023-05-06T21:07:55.355Z,77.81
2023-05-06T21:13:01.432Z,77.64
2023-05-06T21:18:03.439Z,77.86
2023-05-06T21:23:05.283Z,77.68
2023-05-06T21:28:07.033Z,77.40
2023-05-06T21:33:11.363Z,77.63
2023-05-06T21:38:13.317Z,77.44
2023-05-06T21:43:17.978Z,77.31
2023-05-06T21:48:37.771Z,77.33
2023-05-06T21:53:39.409Z,77.64
2023-05-06T21:58:41.123Z,77.99
2023-05-06T22:03:45.318Z,77.97
2023-05-06T22:08:47.212Z,77.80
2023-05-06T22:13:49.035Z,78.10
2023-05-06T22:18:51.866Z,77.97
2023-05-06T22:23:53.598Z,78.17
2023-05-06T22:28:56.253Z,78.28
2023-05-06T22:34:03.554Z,78.30
2023-05-06T22:39:05.606Z,78.52
2023-05-06T22:44:07.468Z,78.60
2023-05-06T22:49:09.876Z,78.70
2023-05-06T22:54:11.724Z,78.85
2023-05-06T22:59:13.701Z,79.15
2023-05-06T23:04:15.874Z,78.98
2023-05-06T23:09:18.534Z,78.99
2023-05-06T23:14:26.918Z,78.94
2023-05-06T23:19:28.602Z,79.25
2023-05-06T23:24:30.279Z,79.45
2023-05-06T23:29:32.054Z,79.87
2023-05-06T23:34:37.079Z,80.62
2023-05-06T23:39:39.208Z,80.86
2023-05-06T23:44:41.611Z,81.04
2023-05-06T23:49:51.321Z,80.36
2023-05-06T23:54:52.989Z,80.55
2023-05-06T23:59:54.678Z,80.53
